Time;durP1;ratioP1;P1;durP2;ratioP2;P2;SDS_P1;SDS_P2;PMS_P1;PMS_P2;Temp;Humidity;BMP_temperature;BMP_pressure;BME280_temperature;BME280_humidity;BME280_pressure;Samples;Min_cycle;Max_cycle;Signal;HPM_P1;HPM_P2
2022/04/30 00:02:08;;;;;;;25.87;16.27;;;;;;;;;;5092249;28;20684;-82
2022/04/30 00:04:35;;;;;;;29.30;16.57;;;;;;;;;;5094234;28;20027;-79
2022/04/30 00:07:01;;;;;;;23.87;16.20;;;;;;;;;;5094005;28;20109;-79
2022/04/30 00:09:26;;;;;;;25.90;15.33;;;;;;;;;;5092462;28;20020;-79
2022/04/30 00:11:53;;;;;;;34.67;17.30;;;;;;;;;;5093012;28;20084;-79
2022/04/30 00:14:18;;;;;;;30.27;16.93;;;;;;;;;;5091455;28;20056;-77
2022/04/30 00:16:44;;;;;;;30.73;17.10;;;;;;;;;;5094065;28;20047;-80
2022/04/30 00:19:10;;;;;;;28.37;16.90;;;;;;;;;;5096543;28;20043;-80
2022/04/30 00:21:35;;;;;;;26.77;16.27;;;;;;;;;;5087322;28;20387;-79
2022/04/30 00:24:02;;;;;;;27.40;16.87;;;;;;;;;;5096586;28;20024;-80
2022/04/30 00:26:28;;;;;;;27.70;16.80;;;;;;;;;;5096548;28;20118;-80
2022/04/30 00:28:54;;;;;;;28.73;16.63;;;;;;;;;;5097088;28;20039;-78
2022/04/30 00:31:20;;;;;;;26.93;18.13;;;;;;;;;;5095261;28;20020;-80
2022/04/30 00:33:48;;;;;;;29.97;16.97;;;;;;;;;;5094225;28;20028;-80
2022/04/30 00:36:14;;;;;;;33.23;16.57;;;;;;;;;;5094244;28;20035;-79
2022/04/30 00:38:41;;;;;;;30.27;15.83;;;;;;;;;;5094077;28;20396;-80
2022/04/30 00:41:10;;;;;;;33.40;17.73;;;;;;;;;;5094127;28;20031;-80
2022/04/30 00:43:50;;;;;;;36.77;17.37;;;;;;;;;;5094715;28;20024;-78
2022/04/30 00:46:18;;;;;;;28.80;16.50;;;;;;;;;;5094825;28;20044;-79
2022/04/30 00:48:45;;;;;;;29.13;16.33;;;;;;;;;;5095051;28;20016;-80
2022/04/30 00:51:18;;;;;;;30.43;18.97;;;;;;;;;;5094392;28;20418;-79
2022/04/30 00:53:49;;;;;;;34.43;17.03;;;;;;;;;;5096118;28;20529;-79
2022/04/30 00:56:18;;;;;;;33.28;18.45;;;;;;;;;;5094587;28;20020;-81
2022/04/30 00:58:47;;;;;;;30.57;17.40;;;;;;;;;;5095390;28;20024;-79
2022/04/30 01:01:14;;;;;;;27.80;17.00;;;;;;;;;;5093997;28;20031;-78
2022/04/30 01:03:40;;;;;;;37.87;21.57;;;;;;;;;;5094621;28;20032;-80
2022/04/30 01:06:06;;;;;;;31.37;19.37;;;;;;;;;;5094396;28;20525;-80
2022/04/30 01:08:32;;;;;;;32.60;19.13;;;;;;;;;;5095194;28;20498;-80
2022/04/30 01:11:01;;;;;;;29.70;18.70;;;;;;;;;;5094112;28;20070;-80
2022/04/30 01:13:29;;;;;;;32.17;19.17;;;;;;;;;;5093284;28;20056;-81
2022/04/30 01:16:00;;;;;;;32.77;17.97;;;;;;;;;;5088247;28;20519;-79
2022/04/30 01:18:26;;;;;;;32.03;18.50;;;;;;;;;;5088695;28;20029;-79
2022/04/30 01:20:59;;;;;;;36.57;20.33;;;;;;;;;;5089560;28;20165;-79
2022/04/30 01:23:26;;;;;;;34.03;18.57;;;;;;;;;;5094858;28;20020;-81
2022/04/30 01:25:53;;;;;;;36.33;18.17;;;;;;;;;;5093406;28;20364;-78
2022/04/30 01:28:20;;;;;;;29.70;16.60;;;;;;;;;;5092193;28;20031;-79
2022/04/30 01:30:46;;;;;;;30.17;18.13;;;;;;;;;;5094136;28;20020;-80
2022/04/30 01:38:40;;;;;;;34.57;18.33;;;;;;;;;;5087900;28;20531;-79
2022/04/30 01:41:06;;;;;;;31.57;18.33;;;;;;;;;;5092962;28;20122;-81
2022/04/30 01:43:33;;;;;;;31.60;17.73;;;;;;;;;;5094452;28;20103;-78
2022/04/30 01:46:00;;;;;;;33.47;19.07;;;;;;;;;;5087526;28;20456;-79
2022/04/30 01:48:26;;;;;;;37.27;20.43;;;;;;;;;;5092537;28;20020;-79
2022/04/30 01:50:52;;;;;;;34.53;19.47;;;;;;;;;;5092830;28;20039;-80
2022/04/30 01:53:18;;;;;;;30.47;18.43;;;;;;;;;;5086044;28;20024;-79
2022/04/30 01:55:44;;;;;;;37.37;19.07;;;;;;;;;;5093138;28;20096;-79
2022/04/30 01:58:10;;;;;;;34.60;19.27;;;;;;;;;;5094020;28;20028;-79
2022/04/30 02:00:35;;;;;;;29.80;18.77;;;;;;;;;;5094650;28;20487;-80
2022/04/30 02:03:07;;;;;;;28.90;18.10;;;;;;;;;;5093655;28;20111;-79
2022/04/30 02:05:34;;;;;;;36.13;18.20;;;;;;;;;;5073220;28;20032;-79
2022/04/30 02:08:03;;;;;;;31.73;18.43;;;;;;;;;;5093904;28;20055;-81
2022/04/30 02:10:30;;;;;;;35.83;18.70;;;;;;;;;;5091928;28;20043;-79
2022/04/30 02:12:56;;;;;;;34.40;20.10;;;;;;;;;;5091296;28;20027;-78
2022/04/30 02:15:23;;;;;;;32.60;20.33;;;;;;;;;;5093757;28;20055;-78
2022/04/30 02:17:50;;;;;;;34.23;20.40;;;;;;;;;;5092370;28;20040;-80
2022/04/30 02:20:22;;;;;;;31.03;19.03;;;;;;;;;;5094168;28;20051;-79
2022/04/30 02:22:58;;;;;;;35.55;17.98;;;;;;;;;;5094426;28;20095;-79
2022/04/30 02:25:26;;;;;;;35.97;19.73;;;;;;;;;;5094339;28;20028;-79
2022/04/30 02:28:04;;;;;;;32.73;20.50;;;;;;;;;;5093667;28;20463;-80
2022/04/30 02:30:31;;;;;;;38.27;19.70;;;;;;;;;;5093493;28;20055;-78
2022/04/30 02:33:03;;;;;;;33.33;18.90;;;;;;;;;;5092000;28;20443;-80
2022/04/30 02:35:30;;;;;;;42.88;21.13;;;;;;;;;;5094332;28;20051;-79
2022/04/30 02:37:59;;;;;;;31.90;18.50;;;;;;;;;;5093286;28;20027;-79
2022/04/30 02:40:26;;;;;;;37.77;21.93;;;;;;;;;;5092927;28;20052;-79
2022/04/30 02:42:53;;;;;;;35.73;19.50;;;;;;;;;;5092418;28;20032;-80
2022/04/30 02:45:21;;;;;;;35.63;20.57;;;;;;;;;;5093504;28;20059;-80
2022/04/30 02:47:53;;;;;;;32.90;19.07;;;;;;;;;;5093387;28;20403;-79
2022/04/30 02:50:19;;;;;;;;;;;;;;;;;;5092383;28;20090;-79
2022/04/30 02:52:45;;;;;;;36.37;20.47;;;;;;;;;;5090753;28;20445;-79
2022/04/30 02:55:12;;;;;;;35.07;18.67;;;;;;;;;;5092945;28;20028;-80
2022/04/30 03:00:37;;;;;;;32.20;18.53;;;;;;;;;;5093283;28;20120;-82
2022/04/30 03:03:03;;;;;;;32.17;19.43;;;;;;;;;;5092531;28;20155;-81
2022/04/30 03:05:31;;;;;;;33.23;20.20;;;;;;;;;;5091102;28;20663;-80
2022/04/30 03:07:57;;;;;;;34.37;20.47;;;;;;;;;;5092805;28;20618;-79
2022/04/30 03:10:23;;;;;;;41.70;22.83;;;;;;;;;;5092829;28;20333;-80
2022/04/30 03:12:49;;;;;;;34.23;20.00;;;;;;;;;;5090933;28;20111;-79
2022/04/30 03:15:17;;;;;;;30.87;19.63;;;;;;;;;;5092567;28;20471;-79
2022/04/30 03:23:13;;;;;;;29.93;18.23;;;;;;;;;;5093122;28;20034;-79
2022/04/30 03:25:39;;;;;;;34.33;19.57;;;;;;;;;;5090206;28;20103;-79
2022/04/30 03:28:04;;;;;;;33.87;20.67;;;;;;;;;;5090375;28;20032;-79
2022/04/30 03:30:31;;;;;;;36.17;19.93;;;;;;;;;;5089893;28;20051;-80
2022/04/30 03:32:56;;;;;;;40.13;21.87;;;;;;;;;;5091271;28;20040;-79
2022/04/30 03:35:22;;;;;;;33.10;19.70;;;;;;;;;;5089944;28;20040;-81
2022/04/30 03:37:47;;;;;;;31.20;19.37;;;;;;;;;;5090530;28;20093;-80
2022/04/30 03:40:14;;;;;;;33.93;20.60;;;;;;;;;;5090433;28;20036;-80
2022/04/30 03:42:39;;;;;;;32.43;20.40;;;;;;;;;;5090710;28;20066;-80
2022/04/30 03:45:05;;;;;;;31.30;20.03;;;;;;;;;;5092270;28;20024;-80
2022/04/30 03:47:31;;;;;;;40.47;20.83;;;;;;;;;;5090681;28;20039;-79
2022/04/30 03:49:59;;;;;;;41.13;20.67;;;;;;;;;;5089973;28;20036;-80
2022/04/30 03:52:24;;;;;;;36.63;20.67;;;;;;;;;;5091716;28;20032;-79
2022/04/30 03:54:50;;;;;;;38.10;20.93;;;;;;;;;;5090259;28;20089;-79
2022/04/30 03:57:15;;;;;;;36.60;20.43;;;;;;;;;;5092089;28;20433;-79
2022/04/30 03:59:41;;;;;;;35.00;20.10;;;;;;;;;;5090508;28;20040;-79
2022/04/30 04:02:06;;;;;;;33.93;21.93;;;;;;;;;;5090320;28;20076;-79
2022/04/30 04:04:32;;;;;;;37.83;20.97;;;;;;;;;;5091861;28;20460;-80
2022/04/30 04:06:58;;;;;;;33.80;21.70;;;;;;;;;;5090675;28;20057;-79
2022/04/30 04:09:24;;;;;;;37.73;20.37;;;;;;;;;;5091735;28;20035;-82
2022/04/30 04:11:50;;;;;;;35.00;21.23;;;;;;;;;;5090167;28;20032;-81
2022/04/30 04:19:43;;;;;;;34.27;20.40;;;;;;;;;;5091746;28;20100;-80
2022/04/30 04:22:09;;;;;;;36.07;20.70;;;;;;;;;;5091766;28;20511;-81
2022/04/30 04:27:18;;;;;;;40.03;20.07;;;;;;;;;;5072018;28;20495;-83
2022/04/30 04:29:45;;;;;;;43.67;22.17;;;;;;;;;;5089813;28;20028;-81
2022/04/30 04:32:11;;;;;;;45.53;23.93;;;;;;;;;;5089687;28;20043;-81
2022/04/30 04:34:36;;;;;;;41.17;22.33;;;;;;;;;;5091098;28;20467;-80
2022/04/30 04:37:02;;;;;;;40.03;21.33;;;;;;;;;;5092248;28;20028;-78
2022/04/30 04:39:27;;;;;;;36.43;23.10;;;;;;;;;;5084502;28;20120;-79
2022/04/30 04:41:53;;;;;;;51.27;24.20;;;;;;;;;;5076479;28;20028;-78
2022/04/30 04:44:21;;;;;;;38.83;21.27;;;;;;;;;;5091214;28;20035;-79
2022/04/30 04:46:47;;;;;;;39.67;19.87;;;;;;;;;;5089632;28;20089;-79
2022/04/30 04:49:13;;;;;;;36.30;20.63;;;;;;;;;;5090657;28;20410;-81
2022/04/30 04:51:39;;;;;;;36.27;21.57;;;;;;;;;;5089166;28;20144;-79
2022/04/30 04:54:05;;;;;;;34.73;20.83;;;;;;;;;;5089825;28;20044;-79
2022/04/30 04:56:30;;;;;;;43.93;20.27;;;;;;;;;;5090053;28;20673;-81
2022/04/30 04:58:56;;;;;;;38.10;21.07;;;;;;;;;;5090647;28;20024;-79
2022/04/30 05:01:22;;;;;;;36.20;19.57;;;;;;;;;;5089717;28;20035;-80
2022/04/30 05:03:47;;;;;;;37.83;19.97;;;;;;;;;;5094648;28;20058;-80
2022/04/30 05:06:13;;;;;;;35.13;19.73;;;;;;;;;;5095063;28;20073;-80
2022/04/30 05:08:39;;;;;;;37.33;20.20;;;;;;;;;;5093823;28;20027;-79
2022/04/30 05:11:05;;;;;;;38.80;20.97;;;;;;;;;;5092478;28;20115;-80
2022/04/30 05:13:31;;;;;;;35.03;20.47;;;;;;;;;;5094473;28;20059;-80
2022/04/30 05:15:56;;;;;;;32.97;20.30;;;;;;;;;;5095616;28;20031;-79
2022/04/30 05:18:22;;;;;;;37.10;21.77;;;;;;;;;;5093390;28;20028;-81
2022/04/30 05:20:48;;;;;;;30.93;19.93;;;;;;;;;;5095181;28;20038;-78
2022/04/30 05:23:14;;;;;;;36.50;20.80;;;;;;;;;;5094449;28;20388;-80
2022/04/30 05:25:40;;;;;;;35.23;20.50;;;;;;;;;;5094517;28;20058;-80
2022/04/30 05:28:09;;;;;;;34.90;20.87;;;;;;;;;;5094962;28;20039;-79
2022/04/30 05:30:35;;;;;;;48.97;26.23;;;;;;;;;;5094916;28;20387;-80
2022/04/30 05:33:01;;;;;;;41.50;21.23;;;;;;;;;;5094308;28;20032;-79
2022/04/30 05:35:26;;;;;;;37.53;21.93;;;;;;;;;;5093655;28;20032;-81
2022/04/30 05:37:52;;;;;;;35.23;21.93;;;;;;;;;;5093267;28;20024;-78
2022/04/30 05:40:20;;;;;;;33.53;19.33;;;;;;;;;;5094644;28;20034;-80
2022/04/30 05:42:46;;;;;;;38.27;22.23;;;;;;;;;;5092990;28;20081;-80
2022/04/30 05:45:11;;;;;;;40.73;23.03;;;;;;;;;;5094427;28;20099;-80
2022/04/30 05:47:37;;;;;;;37.07;21.90;;;;;;;;;;5093219;28;20032;-80
2022/04/30 05:50:06;;;;;;;36.93;21.67;;;;;;;;;;5093915;28;20028;-82
2022/04/30 05:52:34;;;;;;;36.50;22.53;;;;;;;;;;5093619;28;20081;-82
2022/04/30 05:55:01;;;;;;;37.90;20.97;;;;;;;;;;5093057;28;20095;-80
2022/04/30 05:57:28;;;;;;;43.07;25.97;;;;;;;;;;5093987;28;20024;-82
2022/04/30 05:59:55;;;;;;;40.60;24.33;;;;;;;;;;5092930;28;20066;-80
2022/04/30 06:02:20;;;;;;;39.70;23.30;;;;;;;;;;5092326;28;20032;-81
2022/04/30 06:04:46;;;;;;;43.57;28.30;;;;;;;;;;5094400;28;20099;-80
2022/04/30 06:07:12;;;;;;;37.63;22.43;;;;;;;;;;5092656;28;20031;-79
2022/04/30 06:09:37;;;;;;;37.90;21.60;;;;;;;;;;5093260;28;20055;-82
2022/04/30 06:12:03;;;;;;;40.10;23.17;;;;;;;;;;5094339;28;20048;-82
2022/04/30 06:14:29;;;;;;;37.17;21.93;;;;;;;;;;5092756;28;20102;-81
2022/04/30 06:16:55;;;;;;;36.37;24.07;;;;;;;;;;5092495;28;20016;-80
2022/04/30 06:19:21;;;;;;;40.33;23.70;;;;;;;;;;5092729;28;20031;-81
2022/04/30 06:21:48;;;;;;;45.60;23.73;;;;;;;;;;5092431;28;20031;-81
2022/04/30 06:24:14;;;;;;;39.07;22.47;;;;;;;;;;5092471;28;20507;-80
2022/04/30 06:26:40;;;;;;;39.53;23.50;;;;;;;;;;5092253;28;20028;-81
2022/04/30 06:29:06;;;;;;;37.75;22.50;;;;;;;;;;5092075;28;20495;-80
2022/04/30 06:31:32;;;;;;;37.95;21.33;;;;;;;;;;5091480;28;20023;-81
2022/04/30 06:33:58;;;;;;;34.50;21.35;;;;;;;;;;5093804;28;20024;-80
2022/04/30 06:36:23;;;;;;;35.95;20.83;;;;;;;;;;5091116;28;20030;-80
2022/04/30 06:38:49;;;;;;;36.55;22.15;;;;;;;;;;5091413;28;20486;-81
2022/04/30 06:41:15;;;;;;;39.03;22.33;;;;;;;;;;5091266;28;20028;-80
2022/04/30 06:43:44;;;;;;;36.47;21.13;;;;;;;;;;5092495;28;20032;-82
2022/04/30 06:46:10;;;;;;;37.92;22.00;;;;;;;;;;5092679;28;20113;-81
2022/04/30 06:48:36;;;;;;;33.30;20.40;;;;;;;;;;5091368;28;20526;-81
2022/04/30 06:51:02;;;;;;;40.60;22.50;;;;;;;;;;5092868;28;20077;-81
2022/04/30 06:58:59;;;;;;;38.67;21.98;;;;;;;;;;5080956;28;20068;-81
2022/04/30 07:01:41;;;;;;;27.92;19.20;;;;;;;;;;5091769;28;20391;-80
2022/04/30 07:04:07;;;;;;;34.35;18.90;;;;;;;;;;5090980;28;20380;-82
2022/04/30 07:06:33;;;;;;;34.85;19.95;;;;;;;;;;5092663;28;20031;-81
2022/04/30 07:09:01;;;;;;;39.42;21.58;;;;;;;;;;5092225;28;20065;-81
2022/04/30 07:11:26;;;;;;;31.98;19.33;;;;;;;;;;5090472;28;20028;-83
2022/04/30 07:13:53;;;;;;;26.95;15.18;;;;;;;;;;5090955;28;20064;-81
2022/04/30 07:16:18;;;;;;;23.75;14.73;;;;;;;;;;5090659;28;20081;-82
2022/04/30 07:18:44;;;;;;;20.45;13.48;;;;;;;;;;5090980;28;20483;-80
2022/04/30 07:21:09;;;;;;;22.75;14.77;;;;;;;;;;5092599;28;20453;-81
2022/04/30 07:23:35;;;;;;;22.75;13.80;;;;;;;;;;5091419;28;20488;-79
2022/04/30 07:26:01;;;;;;;26.73;16.73;;;;;;;;;;5092414;28;20456;-80
2022/04/30 07:28:30;;;;;;;21.95;14.23;;;;;;;;;;5090947;28;20040;-81
2022/04/30 07:30:55;;;;;;;18.58;12.68;;;;;;;;;;5091269;28;20032;-82
2022/04/30 07:33:21;;;;;;;24.25;12.48;;;;;;;;;;5092717;28;20138;-79
2022/04/30 07:35:48;;;;;;;17.17;11.55;;;;;;;;;;5090318;28;20666;-80
2022/04/30 07:38:14;;;;;;;16.58;11.57;;;;;;;;;;5091754;28;20099;-79
2022/04/30 07:40:39;;;;;;;16.77;10.57;;;;;;;;;;5089802;28;20066;-80
2022/04/30 07:43:05;;;;;;;18.85;10.15;;;;;;;;;;5091796;28;20027;-80
2022/04/30 07:45:30;;;;;;;16.95;10.13;;;;;;;;;;5092197;28;20020;-79
2022/04/30 07:47:56;;;;;;;26.65;11.63;;;;;;;;;;5092276;28;20069;-79
2022/04/30 07:50:23;;;;;;;15.95;10.43;;;;;;;;;;5091874;28;20036;-81
2022/04/30 07:52:49;;;;;;;19.13;11.10;;;;;;;;;;5090477;28;20032;-81
2022/04/30 07:55:18;;;;;;;20.67;10.52;;;;;;;;;;5092934;28;20028;-83
2022/04/30 07:57:45;;;;;;;19.90;11.88;;;;;;;;;;5092538;28;20058;-80
2022/04/30 08:00:11;;;;;;;20.25;10.57;;;;;;;;;;5092228;28;20032;-82
2022/04/30 08:02:37;;;;;;;19.67;10.93;;;;;;;;;;5091222;28;20065;-81
2022/04/30 08:05:03;;;;;;;17.00;9.93;;;;;;;;;;5092542;28;20031;-80
2022/04/30 08:07:29;;;;;;;19.83;9.82;;;;;;;;;;5093045;28;20028;-82
2022/04/30 08:10:45;;;;;;;19.13;10.38;;;;;;;;;;5093231;28;20023;-83
2022/04/30 08:13:11;;;;;;;18.67;9.57;;;;;;;;;;5078884;28;20032;-81
2022/04/30 08:15:43;;;;;;;17.50;10.43;;;;;;;;;;5091279;28;20028;-81
2022/04/30 08:18:10;;;;;;;22.10;12.85;;;;;;;;;;5091293;28;20032;-81
2022/04/30 08:20:39;;;;;;;16.08;10.13;;;;;;;;;;5092010;28;20073;-82
2022/04/30 08:23:06;;;;;;;18.90;10.73;;;;;;;;;;5091946;28;20031;-81
2022/04/30 08:25:34;;;;;;;22.52;11.10;;;;;;;;;;5090140;28;20036;-81
2022/04/30 08:28:02;;;;;;;22.70;10.57;;;;;;;;;;5091562;28;20043;-81
2022/04/30 08:30:28;;;;;;;19.98;9.70;;;;;;;;;;5090096;28;20035;-80
2022/04/30 08:32:53;;;;;;;15.98;10.00;;;;;;;;;;5091726;28;20062;-80
2022/04/30 08:35:19;;;;;;;17.77;10.77;;;;;;;;;;5091446;28;20178;-81
2022/04/30 08:37:44;;;;;;;19.88;9.88;;;;;;;;;;5094566;28;20067;-80
2022/04/30 08:40:10;;;;;;;20.33;9.85;;;;;;;;;;5094763;28;20031;-80
2022/04/30 08:42:38;;;;;;;17.80;10.40;;;;;;;;;;5095285;28;20059;-82
2022/04/30 08:45:07;;;;;;;18.15;9.30;;;;;;;;;;5095770;28;20087;-81
2022/04/30 08:47:39;;;;;;;17.85;9.00;;;;;;;;;;5095523;28;20035;-83
2022/04/30 08:50:14;;;;;;;17.92;9.10;;;;;;;;;;5095675;28;20177;-81
2022/04/30 08:52:40;;;;;;;18.10;9.45;;;;;;;;;;5094002;28;20032;-81
2022/04/30 08:55:07;;;;;;;15.55;8.70;;;;;;;;;;5093791;28;20032;-81
2022/04/30 08:57:33;;;;;;;18.65;9.38;;;;;;;;;;5094862;28;20035;-82
2022/04/30 08:59:59;;;;;;;14.25;8.55;;;;;;;;;;5093658;28;20031;-80
2022/04/30 09:02:25;;;;;;;19.08;9.55;;;;;;;;;;5095512;28;20043;-81
2022/04/30 09:04:50;;;;;;;17.35;9.75;;;;;;;;;;5095098;28;20043;-81
2022/04/30 09:07:20;;;;;;;16.88;9.50;;;;;;;;;;5094974;28;20057;-81
2022/04/30 09:10:00;;;;;;;19.98;9.80;;;;;;;;;;5094858;28;20151;-80
2022/04/30 09:12:31;;;;;;;20.65;11.30;;;;;;;;;;5093592;28;20383;-81
2022/04/30 09:14:59;;;;;;;23.98;11.77;;;;;;;;;;5093642;28;20375;-81
2022/04/30 09:17:27;;;;;;;14.00;9.63;;;;;;;;;;5075957;28;20086;-81
2022/04/30 09:19:59;;;;;;;16.70;11.20;;;;;;;;;;5093476;28;20040;-81
2022/04/30 09:22:35;;;;;;;24.67;12.35;;;;;;;;;;5094964;28;20503;-82
2022/04/30 09:25:04;;;;;;;21.00;12.38;;;;;;;;;;5096329;28;20100;-79
2022/04/30 09:27:31;;;;;;;17.25;10.95;;;;;;;;;;5096044;28;20112;-82
2022/04/30 09:29:58;;;;;;;23.05;12.13;;;;;;;;;;5094800;28;20375;-80
2022/04/30 09:32:27;;;;;;;18.95;11.13;;;;;;;;;;5093291;28;20067;-80
2022/04/30 09:37:41;;;;;;;19.27;10.90;;;;;;;;;;5088444;28;20174;-80
2022/04/30 09:40:15;;;;;;;20.55;12.88;;;;;;;;;;5094249;28;20487;-79
2022/04/30 09:42:43;;;;;;;19.60;10.77;;;;;;;;;;5093206;28;20035;-83
2022/04/30 09:45:21;;;;;;;29.05;13.57;;;;;;;;;;5094504;28;20024;-80
2022/04/30 09:47:47;;;;;;;19.33;12.00;;;;;;;;;;5093749;28;20056;-80
2022/04/30 09:55:44;;;;;;;23.95;11.68;;;;;;;;;;5083199;28;20391;-83
2022/04/30 09:58:15;;;;;;;16.33;10.65;;;;;;;;;;5093091;28;20168;-81
2022/04/30 10:00:41;;;;;;;18.92;10.48;;;;;;;;;;5092245;28;20032;-82
2022/04/30 10:03:13;;;;;;;17.73;9.70;;;;;;;;;;5093195;28;20035;-80
2022/04/30 10:05:40;;;;;;;16.80;11.30;;;;;;;;;;5092768;28;20052;-81
2022/04/30 10:08:06;;;;;;;18.23;10.15;;;;;;;;;;5075681;28;20051;-81
2022/04/30 10:10:51;;;;;;;14.50;9.63;;;;;;;;;;5093543;28;20111;-81
2022/04/30 10:13:32;;;;;;;13.57;8.13;;;;;;;;;;5091834;28;20031;-81
2022/04/30 10:16:01;;;;;;;13.52;8.88;;;;;;;;;;5092306;28;20026;-79
2022/04/30 10:18:42;;;;;;;14.00;8.75;;;;;;;;;;5093433;28;20123;-84
2022/04/30 10:21:20;;;;;;;13.57;9.00;;;;;;;;;;5092835;28;20024;-79
2022/04/30 10:23:45;;;;;;;22.25;13.07;;;;;;;;;;5093453;28;20319;-82
2022/04/30 10:26:11;;;;;;;10.93;7.50;;;;;;;;;;5091338;28;20048;-80
2022/04/30 10:28:36;;;;;;;11.68;8.10;;;;;;;;;;5091935;28;20067;-81
2022/04/30 10:31:06;;;;;;;13.18;8.50;;;;;;;;;;5092858;28;20027;-80
2022/04/30 10:33:33;;;;;;;20.63;9.70;;;;;;;;;;5092416;28;20027;-80
2022/04/30 10:36:06;;;;;;;11.40;7.72;;;;;;;;;;5091961;28;20356;-82
2022/04/30 10:38:32;;;;;;;14.68;8.35;;;;;;;;;;5093067;28;20024;-79
2022/04/30 10:41:00;;;;;;;29.90;17.52;;;;;;;;;;5093429;28;20111;-80
2022/04/30 10:43:32;;;;;;;12.88;8.25;;;;;;;;;;5091679;28;20032;-82
2022/04/30 10:45:58;;;;;;;13.20;7.30;;;;;;;;;;5091498;28;20036;-81
2022/04/30 10:48:27;;;;;;;17.10;8.05;;;;;;;;;;5092957;28;20042;-79
2022/04/30 10:51:09;;;;;;;15.10;9.95;;;;;;;;;;5091896;28;20055;-82
2022/04/30 10:53:38;;;;;;;13.13;8.13;;;;;;;;;;5090971;28;20454;-79
2022/04/30 10:56:05;;;;;;;19.42;10.20;;;;;;;;;;5091776;28;20537;-81
2022/04/30 10:58:31;;;;;;;21.02;9.68;;;;;;;;;;5092337;28;20047;-80
2022/04/30 11:00:58;;;;;;;14.27;8.13;;;;;;;;;;5090833;28;20020;-81
2022/04/30 11:03:28;;;;;;;19.15;10.05;;;;;;;;;;5092899;28;20024;-79
2022/04/30 11:05:54;;;;;;;13.13;7.85;;;;;;;;;;5090766;28;20501;-80
2022/04/30 11:08:20;;;;;;;16.48;8.10;;;;;;;;;;5090634;28;20023;-82
2022/04/30 11:10:54;;;;;;;10.13;7.38;;;;;;;;;;5092536;28;20488;-81
2022/04/30 11:13:20;;;;;;;11.77;6.90;;;;;;;;;;5091948;28;20035;-81
2022/04/30 11:15:47;;;;;;;13.75;7.75;;;;;;;;;;5091986;28;20036;-80
2022/04/30 11:18:13;;;;;;;17.25;10.00;;;;;;;;;;5092760;28;20035;-80
2022/04/30 11:20:39;;;;;;;10.82;6.50;;;;;;;;;;5092413;28;20024;-81
2022/04/30 11:23:05;;;;;;;14.10;6.72;;;;;;;;;;5092510;28;20081;-81
2022/04/30 11:25:36;;;;;;;12.50;6.85;;;;;;;;;;5090506;28;20024;-81
2022/04/30 11:28:06;;;;;;;16.60;7.10;;;;;;;;;;5091748;28;20375;-80
2022/04/30 11:30:35;;;;;;;14.30;6.57;;;;;;;;;;5091158;28;20287;-80
2022/04/30 11:33:01;;;;;;;13.20;6.95;;;;;;;;;;5071299;28;20525;-81
2022/04/30 11:35:26;;;;;;;18.67;6.28;;;;;;;;;;5085410;28;20047;-80
2022/04/30 11:37:53;;;;;;;10.25;5.72;;;;;;;;;;5091886;28;20119;-81
2022/04/30 11:40:21;;;;;;;14.40;6.05;;;;;;;;;;5070699;28;20131;-82
2022/04/30 11:42:57;;;;;;;8.68;5.53;;;;;;;;;;5091694;28;20087;-81
2022/04/30 11:45:29;;;;;;;11.60;5.50;;;;;;;;;;5092503;28;20038;-80
2022/04/30 11:47:58;;;;;;;11.82;6.03;;;;;;;;;;5092611;28;20522;-80
2022/04/30 11:50:25;;;;;;;10.68;5.15;;;;;;;;;;5091896;28;20028;-78
2022/04/30 11:52:51;;;;;;;7.97;5.25;;;;;;;;;;5094857;28;20487;-79
2022/04/30 11:55:18;;;;;;;8.13;5.35;;;;;;;;;;5093724;28;20050;-79
2022/04/30 11:57:43;;;;;;;8.63;5.60;;;;;;;;;;5092492;28;20032;-79
2022/04/30 12:00:11;;;;;;;10.98;7.00;;;;;;;;;;5092947;28;20050;-82
2022/04/30 12:02:42;;;;;;;8.77;4.57;;;;;;;;;;5091095;28;20644;-81
2022/04/30 12:05:09;;;;;;;10.30;5.53;;;;;;;;;;5091041;28;20410;-81
2022/04/30 12:07:40;;;;;;;12.38;5.60;;;;;;;;;;5091401;28;20115;-81
2022/04/30 12:10:26;;;;;;;10.55;5.75;;;;;;;;;;5093833;28;20038;-80
2022/04/30 12:12:53;;;;;;;13.35;5.57;;;;;;;;;;5095819;28;20070;-81
2022/04/30 12:15:26;;;;;;;9.45;6.13;;;;;;;;;;5097364;28;20097;-80
2022/04/30 12:24:43;;;;;;;8.60;5.70;;;;;;;;;;5077871;28;20375;-80
2022/04/30 12:27:01;;;;;;;13.15;5.90;;;;;;;;;;5086031;28;20105;-81
2022/04/30 12:29:27;;;;;;;17.38;6.35;;;;;;;;;;5095856;28;20149;-80
2022/04/30 12:31:53;;;;;;;10.98;6.28;;;;;;;;;;5096239;28;20107;-80
2022/04/30 12:34:22;;;;;;;11.60;6.38;;;;;;;;;;5094612;28;20145;-80
2022/04/30 12:36:57;;;;;;;11.10;7.07;;;;;;;;;;5096067;28;20042;-80
2022/04/30 12:39:23;;;;;;;9.82;6.22;;;;;;;;;;5094985;28;20024;-81
2022/04/30 12:41:53;;;;;;;15.88;6.55;;;;;;;;;;5096321;28;20539;-80
2022/04/30 12:44:22;;;;;;;13.88;6.72;;;;;;;;;;5095631;28;20036;-80
2022/04/30 12:46:48;;;;;;;13.45;5.35;;;;;;;;;;5093679;28;20028;-80
2022/04/30 12:49:15;;;;;;;13.77;6.30;;;;;;;;;;5095608;28;20076;-80
2022/04/30 12:51:41;;;;;;;9.68;5.30;;;;;;;;;;5093394;28;20032;-81
2022/04/30 12:54:13;;;;;;;12.35;5.90;;;;;;;;;;5094420;28;20039;-82
2022/04/30 12:56:44;;;;;;;11.85;6.43;;;;;;;;;;5093645;28;20035;-81
2022/04/30 12:59:16;;;;;;;12.00;6.35;;;;;;;;;;5093242;28;20662;-79
2022/04/30 13:01:42;;;;;;;12.93;5.97;;;;;;;;;;5093863;28;20577;-80
2022/04/30 13:04:08;;;;;;;9.52;5.00;;;;;;;;;;5095173;28;20031;-81
2022/04/30 13:06:35;;;;;;;10.60;5.88;;;;;;;;;;5093117;28;20032;-79
2022/04/30 13:14:29;;;;;;;9.75;5.13;;;;;;;;;;5094274;28;20466;-84
2022/04/30 13:16:55;;;;;;;11.10;5.22;;;;;;;;;;5094999;28;20020;-80
2022/04/30 13:19:20;;;;;;;11.23;4.97;;;;;;;;;;5095389;28;20040;-80
2022/04/30 13:21:46;;;;;;;7.90;5.03;;;;;;;;;;5093538;28;20031;-81
2022/04/30 13:24:16;;;;;;;8.38;5.28;;;;;;;;;;5093574;28;20100;-82
2022/04/30 13:26:43;;;;;;;10.07;4.65;;;;;;;;;;5094345;28;20028;-82
2022/04/30 13:29:10;;;;;;;7.72;5.90;;;;;;;;;;5095256;28;20051;-80
2022/04/30 13:31:38;;;;;;;8.20;4.93;;;;;;;;;;5093559;28;20651;-81
2022/04/30 13:34:03;;;;;;;6.07;4.80;;;;;;;;;;5073254;28;20140;-81
2022/04/30 13:36:42;;;;;;;12.75;5.10;;;;;;;;;;5093354;28;20035;-81
2022/04/30 13:39:08;;;;;;;7.70;5.10;;;;;;;;;;5095126;28;20028;-81
2022/04/30 13:41:33;;;;;;;7.00;4.72;;;;;;;;;;5093130;28;20039;-82
2022/04/30 13:43:59;;;;;;;8.07;4.72;;;;;;;;;;5093643;28;20062;-82
2022/04/30 13:46:25;;;;;;;7.85;5.03;;;;;;;;;;5094900;28;20048;-81
2022/04/30 13:48:50;;;;;;;8.77;4.97;;;;;;;;;;5094755;28;20135;-80
2022/04/30 13:51:16;;;;;;;10.32;5.68;;;;;;;;;;5094055;28;20024;-81
2022/04/30 13:53:42;;;;;;;6.32;5.32;;;;;;;;;;5094791;28;20352;-81
2022/04/30 13:56:08;;;;;;;7.28;4.97;;;;;;;;;;5093048;28;20089;-81
2022/04/30 13:58:33;;;;;;;6.63;5.05;;;;;;;;;;5094344;28;20525;-79
2022/04/30 14:00:59;;;;;;;8.80;6.47;;;;;;;;;;5095264;28;20028;-80
2022/04/30 14:03:28;;;;;;;10.90;5.32;;;;;;;;;;5094703;28;20521;-83
2022/04/30 14:05:54;;;;;;;7.18;4.95;;;;;;;;;;5092350;28;20045;-81
2022/04/30 14:08:20;;;;;;;10.25;4.95;;;;;;;;;;5093918;28;20036;-82
2022/04/30 14:10:46;;;;;;;8.25;5.25;;;;;;;;;;5092718;28;20047;-82
2022/04/30 14:15:56;;;;;;;6.80;4.45;;;;;;;;;;5087570;28;20514;-79
2022/04/30 14:18:24;;;;;;;6.93;5.00;;;;;;;;;;5092718;28;20024;-80
2022/04/30 14:20:54;;;;;;;8.45;4.90;;;;;;;;;;5092585;28;20097;-81
2022/04/30 14:23:21;;;;;;;11.63;4.57;;;;;;;;;;5094000;28;20052;-81
2022/04/30 14:25:49;;;;;;;8.25;4.28;;;;;;;;;;5093045;28;20523;-82
2022/04/30 14:28:19;;;;;;;8.13;4.55;;;;;;;;;;5093510;28;20016;-80
2022/04/30 14:30:45;;;;;;;10.98;4.70;;;;;;;;;;5091864;28;20088;-81
2022/04/30 14:33:12;;;;;;;6.57;5.05;;;;;;;;;;5092085;28;20460;-81
2022/04/30 14:35:39;;;;;;;7.82;5.35;;;;;;;;;;5090613;28;20572;-81
2022/04/30 14:38:08;;;;;;;6.85;4.22;;;;;;;;;;5093534;28;20348;-81
2022/04/30 14:40:44;;;;;;;4.60;3.38;;;;;;;;;;5091476;28;20114;-81
2022/04/30 14:43:13;;;;;;;6.03;4.28;;;;;;;;;;5092778;28;20036;-80
2022/04/30 14:45:40;;;;;;;8.35;4.03;;;;;;;;;;5091809;28;20039;-81
2022/04/30 14:48:06;;;;;;;6.75;4.15;;;;;;;;;;5093100;28;20024;-80
2022/04/30 14:50:33;;;;;;;7.72;3.65;;;;;;;;;;5092435;28;20169;-80
2022/04/30 14:52:59;;;;;;;9.48;3.95;;;;;;;;;;5092530;28;20031;-79
2022/04/30 14:55:30;;;;;;;8.98;4.55;;;;;;;;;;5091708;28;20027;-81
2022/04/30 14:57:56;;;;;;;6.40;3.50;;;;;;;;;;5092772;28;20516;-82
2022/04/30 15:00:22;;;;;;;8.75;3.83;;;;;;;;;;5092685;28;20468;-80
2022/04/30 15:02:48;;;;;;;5.97;3.33;;;;;;;;;;5092833;28;20036;-83
2022/04/30 15:05:14;;;;;;;6.32;3.38;;;;;;;;;;5091440;28;20042;-82
2022/04/30 15:07:40;;;;;;;5.85;3.67;;;;;;;;;;5091457;28;20123;-80
2022/04/30 15:10:09;;;;;;;3.95;3.38;;;;;;;;;;5092675;28;20055;-78
2022/04/30 15:12:39;;;;;;;6.63;4.40;;;;;;;;;;5092405;28;20750;-80
2022/04/30 15:15:05;;;;;;;11.80;4.30;;;;;;;;;;5090717;28;20097;-82
2022/04/30 15:17:30;;;;;;;5.28;3.90;;;;;;;;;;5092414;28;20481;-79